sensor_id;sensor_type;location;lat;lon;timestamp;temperature;humidity
59572;DHT22;74587;45.880;11.484;2024-02-21T00:02:21;4.30;70.50
59572;DHT22;74587;45.880;11.484;2024-02-21T00:04:46;4.30;70.10
59572;DHT22;74587;45.880;11.484;2024-02-21T00:07:12;4.20;70.50
59572;DHT22;74587;45.880;11.484;2024-02-21T00:09:38;4.10;70.50
59572;DHT22;74587;45.880;11.484;2024-02-21T00:12:04;4.10;70.80
59572;DHT22;74587;45.880;11.484;2024-02-21T00:14:30;4.20;70.50
59572;DHT22;74587;45.880;11.484;2024-02-21T00:16:56;4.20;70.40
59572;DHT22;74587;45.880;11.484;2024-02-21T00:19:22;3.90;69.90
59572;DHT22;74587;45.880;11.484;2024-02-21T00:21:48;3.80;70.60
59572;DHT22;74587;45.880;11.484;2024-02-21T00:24:13;3.80;70.70
59572;DHT22;74587;45.880;11.484;2024-02-21T00:26:39;3.60;70.70
59572;DHT22;74587;45.880;11.484;2024-02-21T00:29:05;3.50;70.40
59572;DHT22;74587;45.880;11.484;2024-02-21T00:31:31;3.40;70.10
59572;DHT22;74587;45.880;11.484;2024-02-21T00:33:57;3.80;69.90
59572;DHT22;74587;45.880;11.484;2024-02-21T00:36:23;3.70;69.70
59572;DHT22;74587;45.880;11.484;2024-02-21T00:38:49;3.80;70.00
59572;DHT22;74587;45.880;11.484;2024-02-21T00:41:15;3.60;70.30
59572;DHT22;74587;45.880;11.484;2024-02-21T00:43:41;3.60;70.50
59572;DHT22;74587;45.880;11.484;2024-02-21T00:46:08;3.70;70.70
59572;DHT22;74587;45.880;11.484;2024-02-21T00:48:34;3.80;70.80
59572;DHT22;74587;45.880;11.484;2024-02-21T00:50:59;3.80;70.70
59572;DHT22;74587;45.880;11.484;2024-02-21T00:53:25;3.70;70.80
59572;DHT22;74587;45.880;11.484;2024-02-21T00:55:51;3.80;70.50
59572;DHT22;74587;45.880;11.484;2024-02-21T00:58:17;3.80;70.70
59572;DHT22;74587;45.880;11.484;2024-02-21T01:00:43;3.90;70.60
59572;DHT22;74587;45.880;11.484;2024-02-21T01:03:08;3.60;71.00
59572;DHT22;74587;45.880;11.484;2024-02-21T01:05:34;3.40;71.00
59572;DHT22;74587;45.880;11.484;2024-02-21T01:08:00;3.60;70.70
59572;DHT22;74587;45.880;11.484;2024-02-21T01:10:25;3.70;70.50
59572;DHT22;74587;45.880;11.484;2024-02-21T01:12:51;3.80;70.70
59572;DHT22;74587;45.880;11.484;2024-02-21T01:15:17;3.70;70.50
59572;DHT22;74587;45.880;11.484;2024-02-21T01:17:43;3.60;70.40
59572;DHT22;74587;45.880;11.484;2024-02-21T01:20:09;3.60;69.90
59572;DHT22;74587;45.880;11.484;2024-02-21T01:22:35;3.50;70.10
59572;DHT22;74587;45.880;11.484;2024-02-21T01:25:01;3.10;70.30
59572;DHT22;74587;45.880;11.484;2024-02-21T01:27:26;3.10;70.70
59572;DHT22;74587;45.880;11.484;2024-02-21T01:29:52;3.40;70.50
59572;DHT22;74587;45.880;11.484;2024-02-21T01:32:18;3.40;70.40
59572;DHT22;74587;45.880;11.484;2024-02-21T01:34:44;3.60;70.10
59572;DHT22;74587;45.880;11.484;2024-02-21T01:37:10;3.50;69.70
59572;DHT22;74587;45.880;11.484;2024-02-21T01:39:35;3.60;69.60
59572;DHT22;74587;45.880;11.484;2024-02-21T01:42:01;3.60;69.90
59572;DHT22;74587;45.880;11.484;2024-02-21T01:44:27;3.50;70.10
59572;DHT22;74587;45.880;11.484;2024-02-21T01:46:53;3.40;70.00
59572;DHT22;74587;45.880;11.484;2024-02-21T01:49:20;3.40;70.20
59572;DHT22;74587;45.880;11.484;2024-02-21T01:51:46;3.40;70.50
59572;DHT22;74587;45.880;11.484;2024-02-21T01:54:14;3.40;70.50
59572;DHT22;74587;45.880;11.484;2024-02-21T01:56:42;3.40;70.30
59572;DHT22;74587;45.880;11.484;2024-02-21T01:59:08;3.20;70.50
59572;DHT22;74587;45.880;11.484;2024-02-21T02:01:34;3.20;70.40
59572;DHT22;74587;45.880;11.484;2024-02-21T02:04:00;3.30;70.40
59572;DHT22;74587;45.880;11.484;2024-02-21T02:06:26;3.20;70.50
59572;DHT22;74587;45.880;11.484;2024-02-21T02:08:53;3.10;70.20
59572;DHT22;74587;45.880;11.484;2024-02-21T02:11:20;3.30;70.40
59572;DHT22;74587;45.880;11.484;2024-02-21T02:13:45;3.50;70.20
59572;DHT22;74587;45.880;11.484;2024-02-21T02:16:11;3.60;70.60
59572;DHT22;74587;45.880;11.484;2024-02-21T02:18:37;3.70;70.50
59572;DHT22;74587;45.880;11.484;2024-02-21T02:21:05;3.70;69.80
59572;DHT22;74587;45.880;11.484;2024-02-21T02:23:34;3.70;69.40
59572;DHT22;74587;45.880;11.484;2024-02-21T02:26:00;3.70;70.10
59572;DHT22;74587;45.880;11.484;2024-02-21T02:28:29;3.50;70.10
59572;DHT22;74587;45.880;11.484;2024-02-21T02:30:54;3.30;69.60
59572;DHT22;74587;45.880;11.484;2024-02-21T02:33:20;3.20;70.00
59572;DHT22;74587;45.880;11.484;2024-02-21T02:35:46;3.10;70.10
59572;DHT22;74587;45.880;11.484;2024-02-21T02:38:12;3.00;70.00
59572;DHT22;74587;45.880;11.484;2024-02-21T02:40:39;3.20;69.70
59572;DHT22;74587;45.880;11.484;2024-02-21T02:43:07;3.40;70.00
59572;DHT22;74587;45.880;11.484;2024-02-21T02:45:33;3.40;70.20
59572;DHT22;74587;45.880;11.484;2024-02-21T02:48:00;3.40;69.80
59572;DHT22;74587;45.880;11.484;2024-02-21T02:50:27;3.10;70.10
59572;DHT22;74587;45.880;11.484;2024-02-21T02:52:53;3.20;69.80
59572;DHT22;74587;45.880;11.484;2024-02-21T02:55:19;3.30;70.10
59572;DHT22;74587;45.880;11.484;2024-02-21T02:57:46;3.30;70.20
59572;DHT22;74587;45.880;11.484;2024-02-21T03:00:12;3.20;70.10
59572;DHT22;74587;45.880;11.484;2024-02-21T03:02:39;3.20;70.30
59572;DHT22;74587;45.880;11.484;2024-02-21T03:05:16;3.10;70.10
59572;DHT22;74587;45.880;11.484;2024-02-21T03:07:43;3.10;70.30
59572;DHT22;74587;45.880;11.484;2024-02-21T03:10:09;3.10;70.20
59572;DHT22;74587;45.880;11.484;2024-02-21T03:12:35;3.20;70.00
59572;DHT22;74587;45.880;11.484;2024-02-21T03:15:01;3.00;70.00
59572;DHT22;74587;45.880;11.484;2024-02-21T03:17:27;3.10;70.30
59572;DHT22;74587;45.880;11.484;2024-02-21T03:19:53;3.00;70.00
59572;DHT22;74587;45.880;11.484;2024-02-21T03:22:21;3.10;70.00
59572;DHT22;74587;45.880;11.484;2024-02-21T03:24:47;3.00;70.10
59572;DHT22;74587;45.880;11.484;2024-02-21T03:27:12;3.10;70.40
59572;DHT22;74587;45.880;11.484;2024-02-21T03:29:38;3.00;70.20
59572;DHT22;74587;45.880;11.484;2024-02-21T03:32:04;3.10;70.30
59572;DHT22;74587;45.880;11.484;2024-02-21T03:34:30;3.10;70.10
59572;DHT22;74587;45.880;11.484;2024-02-21T03:36:55;3.20;70.10
59572;DHT22;74587;45.880;11.484;2024-02-21T03:39:21;3.20;70.50
59572;DHT22;74587;45.880;11.484;2024-02-21T03:41:47;3.00;70.50
59572;DHT22;74587;45.880;11.484;2024-02-21T03:44:13;2.80;70.40
59572;DHT22;74587;45.880;11.484;2024-02-21T03:46:39;2.90;70.30
59572;DHT22;74587;45.880;11.484;2024-02-21T03:49:04;2.90;70.60
59572;DHT22;74587;45.880;11.484;2024-02-21T03:51:30;3.00;71.10
59572;DHT22;74587;45.880;11.484;2024-02-21T03:53:56;2.80;71.10
59572;DHT22;74587;45.880;11.484;2024-02-21T03:56:22;2.80;70.80
59572;DHT22;74587;45.880;11.484;2024-02-21T03:58:48;2.70;71.50
59572;DHT22;74587;45.880;11.484;2024-02-21T04:01:16;2.80;71.90
59572;DHT22;74587;45.880;11.484;2024-02-21T04:03:44;2.80;72.90
59572;DHT22;74587;45.880;11.484;2024-02-21T04:06:09;3.10;74.10
59572;DHT22;74587;45.880;11.484;2024-02-21T04:08:35;3.20;73.60
59572;DHT22;74587;45.880;11.484;2024-02-21T04:11:01;3.20;74.20
59572;DHT22;74587;45.880;11.484;2024-02-21T04:13:27;3.10;74.10
59572;DHT22;74587;45.880;11.484;2024-02-21T04:15:52;3.10;74.40
59572;DHT22;74587;45.880;11.484;2024-02-21T04:18:18;3.30;74.40
59572;DHT22;74587;45.880;11.484;2024-02-21T04:20:44;3.00;74.40
59572;DHT22;74587;45.880;11.484;2024-02-21T04:23:10;3.00;74.10
59572;DHT22;74587;45.880;11.484;2024-02-21T04:25:36;3.20;73.40
59572;DHT22;74587;45.880;11.484;2024-02-21T04:28:02;3.10;73.10
59572;DHT22;74587;45.880;11.484;2024-02-21T04:30:28;3.10;72.80
59572;DHT22;74587;45.880;11.484;2024-02-21T04:32:54;3.40;72.10
59572;DHT22;74587;45.880;11.484;2024-02-21T04:35:20;3.30;72.10
59572;DHT22;74587;45.880;11.484;2024-02-21T04:37:46;3.30;72.10
59572;DHT22;74587;45.880;11.484;2024-02-21T04:40:12;3.10;71.60
59572;DHT22;74587;45.880;11.484;2024-02-21T04:42:38;3.20;71.30
59572;DHT22;74587;45.880;11.484;2024-02-21T04:45:05;3.00;72.00
59572;DHT22;74587;45.880;11.484;2024-02-21T04:47:30;3.00;72.20
59572;DHT22;74587;45.880;11.484;2024-02-21T04:49:56;3.20;72.20
59572;DHT22;74587;45.880;11.484;2024-02-21T04:52:22;3.30;72.40
59572;DHT22;74587;45.880;11.484;2024-02-21T04:54:47;3.30;72.20
59572;DHT22;74587;45.880;11.484;2024-02-21T04:57:14;3.20;71.60
59572;DHT22;74587;45.880;11.484;2024-02-21T04:59:44;3.20;71.50
59572;DHT22;74587;45.880;11.484;2024-02-21T05:02:10;3.00;71.80
59572;DHT22;74587;45.880;11.484;2024-02-21T05:04:36;3.20;71.80
59572;DHT22;74587;45.880;11.484;2024-02-21T05:07:04;3.00;71.90
59572;DHT22;74587;45.880;11.484;2024-02-21T05:09:30;3.10;71.70
59572;DHT22;74587;45.880;11.484;2024-02-21T05:11:55;3.10;71.70
59572;DHT22;74587;45.880;11.484;2024-02-21T05:14:21;3.30;71.90
59572;DHT22;74587;45.880;11.484;2024-02-21T05:16:47;3.20;72.10
59572;DHT22;74587;45.880;11.484;2024-02-21T05:19:12;3.20;72.20
59572;DHT22;74587;45.880;11.484;2024-02-21T05:21:38;3.20;72.50
59572;DHT22;74587;45.880;11.484;2024-02-21T05:24:04;3.10;72.70
59572;DHT22;74587;45.880;11.484;2024-02-21T05:26:30;3.20;72.70
59572;DHT22;74587;45.880;11.484;2024-02-21T05:28:56;3.00;72.90
59572;DHT22;74587;45.880;11.484;2024-02-21T05:31:21;2.90;72.90
59572;DHT22;74587;45.880;11.484;2024-02-21T05:33:47;2.90;73.50
59572;DHT22;74587;45.880;11.484;2024-02-21T05:36:13;2.80;73.80
59572;DHT22;74587;45.880;11.484;2024-02-21T05:38:39;2.90;74.00
59572;DHT22;74587;45.880;11.484;2024-02-21T05:41:05;2.80;74.00
59572;DHT22;74587;45.880;11.484;2024-02-21T05:43:31;2.90;74.60
59572;DHT22;74587;45.880;11.484;2024-02-21T05:45:57;2.90;75.00
59572;DHT22;74587;45.880;11.484;2024-02-21T05:48:23;2.90;75.50
59572;DHT22;74587;45.880;11.484;2024-02-21T05:50:50;2.80;76.10
59572;DHT22;74587;45.880;11.484;2024-02-21T05:53:16;2.90;75.60
59572;DHT22;74587;45.880;11.484;2024-02-21T05:55:41;3.00;75.30
59572;DHT22;74587;45.880;11.484;2024-02-21T05:58:07;3.00;75.20
59572;DHT22;74587;45.880;11.484;2024-02-21T06:00:36;3.00;75.50
59572;DHT22;74587;45.880;11.484;2024-02-21T06:03:02;3.00;75.30
59572;DHT22;74587;45.880;11.484;2024-02-21T06:05:28;3.00;75.40
59572;DHT22;74587;45.880;11.484;2024-02-21T06:07:54;2.90;75.60
59572;DHT22;74587;45.880;11.484;2024-02-21T06:10:19;2.80;76.00
59572;DHT22;74587;45.880;11.484;2024-02-21T06:12:45;2.70;76.20
59572;DHT22;74587;45.880;11.484;2024-02-21T06:15:11;2.70;75.90
59572;DHT22;74587;45.880;11.484;2024-02-21T06:17:36;2.80;75.60
59572;DHT22;74587;45.880;11.484;2024-02-21T06:20:02;2.70;75.30
59572;DHT22;74587;45.880;11.484;2024-02-21T06:22:30;2.80;75.30
59572;DHT22;74587;45.880;11.484;2024-02-21T06:24:56;2.90;75.40
59572;DHT22;74587;45.880;11.484;2024-02-21T06:27:21;2.90;75.20
59572;DHT22;74587;45.880;11.484;2024-02-21T06:29:47;3.10;75.40
59572;DHT22;74587;45.880;11.484;2024-02-21T06:32:13;3.10;75.50
59572;DHT22;74587;45.880;11.484;2024-02-21T06:34:39;3.40;75.70
59572;DHT22;74587;45.880;11.484;2024-02-21T06:37:04;3.80;75.60
59572;DHT22;74587;45.880;11.484;2024-02-21T06:39:30;3.70;75.60
59572;DHT22;74587;45.880;11.484;2024-02-21T06:41:56;4.30;75.40
59572;DHT22;74587;45.880;11.484;2024-02-21T06:44:22;4.70;75.00
59572;DHT22;74587;45.880;11.484;2024-02-21T06:46:48;4.80;74.80
59572;DHT22;74587;45.880;11.484;2024-02-21T06:49:13;5.20;74.70
59572;DHT22;74587;45.880;11.484;2024-02-21T06:51:44;5.10;74.00
59572;DHT22;74587;45.880;11.484;2024-02-21T06:54:10;5.40;73.60
59572;DHT22;74587;45.880;11.484;2024-02-21T06:56:37;5.50;73.40
59572;DHT22;74587;45.880;11.484;2024-02-21T06:59:03;5.50;73.50
59572;DHT22;74587;45.880;11.484;2024-02-21T07:01:30;5.50;73.60
59572;DHT22;74587;45.880;11.484;2024-02-21T07:03:56;5.90;73.50
59572;DHT22;74587;45.880;11.484;2024-02-21T07:06:22;6.00;73.20
59572;DHT22;74587;45.880;11.484;2024-02-21T07:08:48;5.80;73.50
59572;DHT22;74587;45.880;11.484;2024-02-21T07:11:13;5.80;73.40
59572;DHT22;74587;45.880;11.484;2024-02-21T07:13:39;5.90;73.50
59572;DHT22;74587;45.880;11.484;2024-02-21T07:16:06;5.20;73.90
59572;DHT22;74587;45.880;11.484;2024-02-21T07:18:32;5.10;74.40
59572;DHT22;74587;45.880;11.484;2024-02-21T07:20:58;5.10;74.70
59572;DHT22;74587;45.880;11.484;2024-02-21T07:23:24;4.90;74.90
59572;DHT22;74587;45.880;11.484;2024-02-21T07:25:50;5.00;74.80
59572;DHT22;74587;45.880;11.484;2024-02-21T07:28:15;5.20;75.00
59572;DHT22;74587;45.880;11.484;2024-02-21T07:30:42;5.50;75.10
59572;DHT22;74587;45.880;11.484;2024-02-21T07:33:08;5.50;74.90
59572;DHT22;74587;45.880;11.484;2024-02-21T07:35:34;5.70;74.60
59572;DHT22;74587;45.880;11.484;2024-02-21T07:38:03;5.80;74.20
59572;DHT22;74587;45.880;11.484;2024-02-21T07:40:30;6.10;73.90
59572;DHT22;74587;45.880;11.484;2024-02-21T07:42:56;6.00;73.70
59572;DHT22;74587;45.880;11.484;2024-02-21T07:45:27;6.20;73.60
59572;DHT22;74587;45.880;11.484;2024-02-21T07:47:53;6.20;73.30
59572;DHT22;74587;45.880;11.484;2024-02-21T07:50:19;6.40;73.20
59572;DHT22;74587;45.880;11.484;2024-02-21T07:53:05;6.50;73.10
59572;DHT22;74587;45.880;11.484;2024-02-21T07:55:31;6.60;73.50
59572;DHT22;74587;45.880;11.484;2024-02-21T07:57:57;6.50;73.70
59572;DHT22;74587;45.880;11.484;2024-02-21T08:00:23;6.70;73.60
59572;DHT22;74587;45.880;11.484;2024-02-21T08:02:49;6.70;73.60
59572;DHT22;74587;45.880;11.484;2024-02-21T08:05:15;6.70;73.50
59572;DHT22;74587;45.880;11.484;2024-02-21T08:07:41;7.00;73.40
59572;DHT22;74587;45.880;11.484;2024-02-21T08:10:09;6.90;73.70
59572;DHT22;74587;45.880;11.484;2024-02-21T08:12:35;7.00;73.60
59572;DHT22;74587;45.880;11.484;2024-02-21T08:15:04;7.10;73.30
59572;DHT22;74587;45.880;11.484;2024-02-21T08:17:30;7.20;73.30
59572;DHT22;74587;45.880;11.484;2024-02-21T08:19:56;7.00;73.50
59572;DHT22;74587;45.880;11.484;2024-02-21T08:22:22;7.00;73.50
59572;DHT22;74587;45.880;11.484;2024-02-21T08:24:48;6.90;73.60
59572;DHT22;74587;45.880;11.484;2024-02-21T08:29:49;6.90;72.90
59572;DHT22;74587;45.880;11.484;2024-02-21T08:32:34;7.10;73.10
59572;DHT22;74587;45.880;11.484;2024-02-21T08:35:07;7.10;73.20
59572;DHT22;74587;45.880;11.484;2024-02-21T08:37:52;7.20;73.10
59572;DHT22;74587;45.880;11.484;2024-02-21T08:40:18;7.50;72.30
59572;DHT22;74587;45.880;11.484;2024-02-21T08:42:47;7.60;71.80
59572;DHT22;74587;45.880;11.484;2024-02-21T08:50:26;7.30;71.00
59572;DHT22;74587;45.880;11.484;2024-02-21T09:19:08;8.30;71.80
59572;DHT22;74587;45.880;11.484;2024-02-21T09:26:46;8.60;72.10
59572;DHT22;74587;45.880;11.484;2024-02-21T09:29:12;8.70;72.50
59572;DHT22;74587;45.880;11.484;2024-02-21T09:31:38;8.70;72.50
59572;DHT22;74587;45.880;11.484;2024-02-21T09:34:04;8.90;72.50
59572;DHT22;74587;45.880;11.484;2024-02-21T09:36:30;8.90;72.50
59572;DHT22;74587;45.880;11.484;2024-02-21T09:38:56;9.00;72.60
59572;DHT22;74587;45.880;11.484;2024-02-21T09:41:28;9.10;72.80
59572;DHT22;74587;45.880;11.484;2024-02-21T09:43:53;10.00;75.00
59572;DHT22;74587;45.880;11.484;2024-02-21T09:46:23;10.30;73.30
59572;DHT22;74587;45.880;11.484;2024-02-21T09:51:34;11.40;75.40
59572;DHT22;74587;45.880;11.484;2024-02-21T09:54:00;11.60;73.30
59572;DHT22;74587;45.880;11.484;2024-02-21T09:56:26;12.10;73.40
59572;DHT22;74587;45.880;11.484;2024-02-21T09:58:52;12.20;72.40
59572;DHT22;74587;45.880;11.484;2024-02-21T10:01:17;12.10;72.90
59572;DHT22;74587;45.880;11.484;2024-02-21T10:03:43;12.10;73.30
59572;DHT22;74587;45.880;11.484;2024-02-21T10:06:09;12.40;74.40
59572;DHT22;74587;45.880;11.484;2024-02-21T10:08:35;12.70;72.50
59572;DHT22;74587;45.880;11.484;2024-02-21T10:11:01;12.80;72.20
59572;DHT22;74587;45.880;11.484;2024-02-21T10:13:29;12.80;71.50
59572;DHT22;74587;45.880;11.484;2024-02-21T10:16:05;12.80;71.80
59572;DHT22;74587;45.880;11.484;2024-02-21T10:18:31;13.00;72.20
59572;DHT22;74587;45.880;11.484;2024-02-21T10:21:04;13.00;71.60
59572;DHT22;74587;45.880;11.484;2024-02-21T10:23:44;12.90;71.40
59572;DHT22;74587;45.880;11.484;2024-02-21T10:26:10;12.90;71.30
59572;DHT22;74587;45.880;11.484;2024-02-21T10:28:40;12.90;70.80
59572;DHT22;74587;45.880;11.484;2024-02-21T10:31:28;11.70;71.00
59572;DHT22;74587;45.880;11.484;2024-02-21T10:33:58;11.90;74.10
59572;DHT22;74587;45.880;11.484;2024-02-21T10:36:24;11.70;71.20
59572;DHT22;74587;45.880;11.484;2024-02-21T10:38:51;11.30;72.40
59572;DHT22;74587;45.880;11.484;2024-02-21T10:41:19;12.10;74.60
59572;DHT22;74587;45.880;11.484;2024-02-21T10:43:54;12.70;75.30
59572;DHT22;74587;45.880;11.484;2024-02-21T10:46:23;12.80;72.20
59572;DHT22;74587;45.880;11.484;2024-02-21T10:49:01;12.90;72.10
59572;DHT22;74587;45.880;11.484;2024-02-21T10:51:33;13.10;71.60
59572;DHT22;74587;45.880;11.484;2024-02-21T10:56:57;12.90;71.30
59572;DHT22;74587;45.880;11.484;2024-02-21T10:59:24;13.00;71.40
59572;DHT22;74587;45.880;11.484;2024-02-21T11:01:51;13.20;71.30
59572;DHT22;74587;45.880;11.484;2024-02-21T11:04:18;13.20;70.70
59572;DHT22;74587;45.880;11.484;2024-02-21T11:06:44;13.20;70.80
59572;DHT22;74587;45.880;11.484;2024-02-21T11:09:11;13.20;70.80
59572;DHT22;74587;45.880;11.484;2024-02-21T11:11:44;13.20;70.90
59572;DHT22;74587;45.880;11.484;2024-02-21T11:14:17;13.40;70.50
59572;DHT22;74587;45.880;11.484;2024-02-21T11:16:43;13.30;70.60
59572;DHT22;74587;45.880;11.484;2024-02-21T11:19:22;13.30;70.30
59572;DHT22;74587;45.880;11.484;2024-02-21T11:21:50;13.50;70.10
59572;DHT22;74587;45.880;11.484;2024-02-21T11:24:34;13.30;70.10
59572;DHT22;74587;45.880;11.484;2024-02-21T11:27:23;13.00;69.50
59572;DHT22;74587;45.880;11.484;2024-02-21T11:29:56;13.10;70.60
59572;DHT22;74587;45.880;11.484;2024-02-21T11:32:22;13.00;70.40
59572;DHT22;74587;45.880;11.484;2024-02-21T11:37:25;13.10;70.40
59572;DHT22;74587;45.880;11.484;2024-02-21T11:42:45;12.90;70.40
59572;DHT22;74587;45.880;11.484;2024-02-21T11:45:16;12.70;70.60
59572;DHT22;74587;45.880;11.484;2024-02-21T11:47:57;12.50;71.70
59572;DHT22;74587;45.880;11.484;2024-02-21T11:50:26;12.20;71.70
59572;DHT22;74587;45.880;11.484;2024-02-21T11:52:54;12.10;71.70
59572;DHT22;74587;45.880;11.484;2024-02-21T11:55:22;12.20;71.90
59572;DHT22;74587;45.880;11.484;2024-02-21T11:57:53;12.00;71.90
59572;DHT22;74587;45.880;11.484;2024-02-21T12:10:42;12.30;72.10
59572;DHT22;74587;45.880;11.484;2024-02-21T12:13:10;12.20;72.20
59572;DHT22;74587;45.880;11.484;2024-02-21T12:15:37;12.20;72.30
59572;DHT22;74587;45.880;11.484;2024-02-21T12:18:16;12.40;72.40
59572;DHT22;74587;45.880;11.484;2024-02-21T13:54:05;12.70;73.30
59572;DHT22;74587;45.880;11.484;2024-02-21T14:00:28;12.70;74.70
59572;DHT22;74587;45.880;11.484;2024-02-21T14:02:54;12.70;73.60
59572;DHT22;74587;45.880;11.484;2024-02-21T14:05:20;12.60;74.90
59572;DHT22;74587;45.880;11.484;2024-02-21T14:07:46;12.60;74.90
59572;DHT22;74587;45.880;11.484;2024-02-21T14:10:12;12.60;75.10
59572;DHT22;74587;45.880;11.484;2024-02-21T14:12:37;12.70;75.00
59572;DHT22;74587;45.880;11.484;2024-02-21T14:15:04;12.60;75.00
59572;DHT22;74587;45.880;11.484;2024-02-21T14:17:30;12.50;75.10
59572;DHT22;74587;45.880;11.484;2024-02-21T14:19:56;12.50;75.10
59572;DHT22;74587;45.880;11.484;2024-02-21T14:22:22;12.30;75.30
59572;DHT22;74587;45.880;11.484;2024-02-21T14:24:48;12.50;75.30
59572;DHT22;74587;45.880;11.484;2024-02-21T14:27:13;12.50;75.50
59572;DHT22;74587;45.880;11.484;2024-02-21T14:29:39;12.30;75.60
59572;DHT22;74587;45.880;11.484;2024-02-21T14:32:05;12.30;75.70
59572;DHT22;74587;45.880;11.484;2024-02-21T14:34:32;12.40;75.90
59572;DHT22;74587;45.880;11.484;2024-02-21T14:36:58;12.20;75.90
59572;DHT22;74587;45.880;11.484;2024-02-21T14:39:24;12.00;76.20
59572;DHT22;74587;45.880;11.484;2024-02-21T14:41:50;12.00;76.20
59572;DHT22;74587;45.880;11.484;2024-02-21T14:44:16;12.00;76.10
59572;DHT22;74587;45.880;11.484;2024-02-21T14:46:42;12.00;76.30
59572;DHT22;74587;45.880;11.484;2024-02-21T14:49:07;12.00;76.20
59572;DHT22;74587;45.880;11.484;2024-02-21T14:51:33;12.00;76.30
59572;DHT22;74587;45.880;11.484;2024-02-21T14:53:59;12.00;76.40
59572;DHT22;74587;45.880;11.484;2024-02-21T14:56:28;12.00;76.50
59572;DHT22;74587;45.880;11.484;2024-02-21T14:58:54;12.00;76.40
59572;DHT22;74587;45.880;11.484;2024-02-21T15:01:20;11.90;76.60
59572;DHT22;74587;45.880;11.484;2024-02-21T15:03:46;11.80;76.60
59572;DHT22;74587;45.880;11.484;2024-02-21T15:06:15;11.80;76.50
59572;DHT22;74587;45.880;11.484;2024-02-21T15:08:43;11.80;76.70
59572;DHT22;74587;45.880;11.484;2024-02-21T15:11:14;11.80;76.80
59572;DHT22;74587;45.880;11.484;2024-02-21T15:13:40;11.70;76.80
59572;DHT22;74587;45.880;11.484;2024-02-21T15:16:06;11.70;76.90
59572;DHT22;74587;45.880;11.484;2024-02-21T15:18:32;11.70;77.00
59572;DHT22;74587;45.880;11.484;2024-02-21T15:20:59;11.60;77.20
59572;DHT22;74587;45.880;11.484;2024-02-21T15:23:27;11.60;77.20
59572;DHT22;74587;45.880;11.484;2024-02-21T15:25:58;11.50;77.30
59572;DHT22;74587;45.880;11.484;2024-02-21T15:35:31;11.20;77.70
59572;DHT22;74587;45.880;11.484;2024-02-21T15:38:20;11.10;77.80
59572;DHT22;74587;45.880;11.484;2024-02-21T15:40:46;11.10;78.00
59572;DHT22;74587;45.880;11.484;2024-02-21T15:43:11;11.00;78.20
59572;DHT22;74587;45.880;11.484;2024-02-21T15:45:37;11.00;78.20
59572;DHT22;74587;45.880;11.484;2024-02-21T15:48:06;10.90;78.40
59572;DHT22;74587;45.880;11.484;2024-02-21T15:50:32;10.90;78.40
59572;DHT22;74587;45.880;11.484;2024-02-21T15:52:58;10.80;78.70
59572;DHT22;74587;45.880;11.484;2024-02-21T15:55:24;10.60;78.90
59572;DHT22;74587;45.880;11.484;2024-02-21T15:57:50;10.40;79.00
59572;DHT22;74587;45.880;11.484;2024-02-21T16:00:16;10.40;79.20
59572;DHT22;74587;45.880;11.484;2024-02-21T16:02:41;10.30;79.40
59572;DHT22;74587;45.880;11.484;2024-02-21T16:05:10;10.20;79.50
59572;DHT22;74587;45.880;11.484;2024-02-21T16:07:39;10.20;79.70
59572;DHT22;74587;45.880;11.484;2024-02-21T16:12:58;10.10;80.10
59572;DHT22;74587;45.880;11.484;2024-02-21T16:15:25;10.10;80.00
59572;DHT22;74587;45.880;11.484;2024-02-21T16:17:56;10.10;80.30
59572;DHT22;74587;45.880;11.484;2024-02-21T16:20:28;10.00;80.40
59572;DHT22;74587;45.880;11.484;2024-02-21T16:23:00;10.00;80.70
59572;DHT22;74587;45.880;11.484;2024-02-21T16:25:34;10.00;80.60
59572;DHT22;74587;45.880;11.484;2024-02-21T16:28:02;9.90;80.70
59572;DHT22;74587;45.880;11.484;2024-02-21T16:30:34;9.90;80.90
59572;DHT22;74587;45.880;11.484;2024-02-21T16:35:57;9.90;81.10
59572;DHT22;74587;45.880;11.484;2024-02-21T16:38:23;9.90;80.90
59572;DHT22;74587;45.880;11.484;2024-02-21T16:41:10;9.80;81.20
59572;DHT22;74587;45.880;11.484;2024-02-21T16:43:35;9.80;81.30
59572;DHT22;74587;45.880;11.484;2024-02-21T16:46:02;9.80;81.40
59572;DHT22;74587;45.880;11.484;2024-02-21T16:48:27;9.70;81.40
59572;DHT22;74587;45.880;11.484;2024-02-21T16:50:54;9.70;81.50
59572;DHT22;74587;45.880;11.484;2024-02-21T16:53:20;9.70;81.40
59572;DHT22;74587;45.880;11.484;2024-02-21T16:55:46;9.70;81.60
59572;DHT22;74587;45.880;11.484;2024-02-21T16:58:14;9.80;81.70
59572;DHT22;74587;45.880;11.484;2024-02-21T17:00:41;9.70;81.70
59572;DHT22;74587;45.880;11.484;2024-02-21T17:03:08;9.80;81.60
59572;DHT22;74587;45.880;11.484;2024-02-21T17:05:36;9.80;81.70
59572;DHT22;74587;45.880;11.484;2024-02-21T17:08:03;9.70;81.80
59572;DHT22;74587;45.880;11.484;2024-02-21T17:10:29;9.80;81.80
59572;DHT22;74587;45.880;11.484;2024-02-21T17:12:56;9.70;81.90
59572;DHT22;74587;45.880;11.484;2024-02-21T17:15:22;9.80;81.90
59572;DHT22;74587;45.880;11.484;2024-02-21T17:17:48;9.80;82.10
59572;DHT22;74587;45.880;11.484;2024-02-21T17:20:15;9.70;82.10
59572;DHT22;74587;45.880;11.484;2024-02-21T17:22:41;9.60;82.30
59572;DHT22;74587;45.880;11.484;2024-02-21T17:25:07;9.70;82.40
59572;DHT22;74587;45.880;11.484;2024-02-21T17:27:36;9.50;82.60
59572;DHT22;74587;45.880;11.484;2024-02-21T17:30:03;9.60;82.50
59572;DHT22;74587;45.880;11.484;2024-02-21T17:32:29;9.70;82.60
59572;DHT22;74587;45.880;11.484;2024-02-21T17:34:55;9.70;82.40
59572;DHT22;74587;45.880;11.484;2024-02-21T17:37:21;9.70;82.40
59572;DHT22;74587;45.880;11.484;2024-02-21T17:39:46;9.50;82.70
59572;DHT22;74587;45.880;11.484;2024-02-21T17:42:12;9.60;82.70
59572;DHT22;74587;45.880;11.484;2024-02-21T17:44:38;9.70;82.80
59572;DHT22;74587;45.880;11.484;2024-02-21T17:47:07;9.60;82.50
59572;DHT22;74587;45.880;11.484;2024-02-21T17:49:33;9.70;82.60
59572;DHT22;74587;45.880;11.484;2024-02-21T17:51:59;9.60;82.70
59572;DHT22;74587;45.880;11.484;2024-02-21T17:54:24;9.70;82.60
59572;DHT22;74587;45.880;11.484;2024-02-21T17:56:50;9.60;82.70
59572;DHT22;74587;45.880;11.484;2024-02-21T17:59:16;9.70;82.80
59572;DHT22;74587;45.880;11.484;2024-02-21T18:01:44;9.50;82.50
59572;DHT22;74587;45.880;11.484;2024-02-21T18:04:10;9.40;82.50
59572;DHT22;74587;45.880;11.484;2024-02-21T18:06:35;9.30;82.60
59572;DHT22;74587;45.880;11.484;2024-02-21T18:09:01;9.30;82.30
59572;DHT22;74587;45.880;11.484;2024-02-21T18:11:28;9.20;82.60
59572;DHT22;74587;45.880;11.484;2024-02-21T18:13:54;9.40;82.40
59572;DHT22;74587;45.880;11.484;2024-02-21T18:16:22;9.30;82.30
59572;DHT22;74587;45.880;11.484;2024-02-21T18:18:49;9.20;82.40